Time;durP1;ratioP1;P1;durP2;ratioP2;P2;SDS_P1;SDS_P2;PMS_P1;PMS_P2;Temp;Humidity;BMP_temperature;BMP_pressure;BME280_temperature;BME280_humidity;BME280_pressure;Samples;Min_cycle;Max_cycle;Signal;HPM_P1;HPM_P2
2022/05/08 00:02:01;;;;;;;;;5.40;5.40;;;;;;;;5019167;28;8798;-66
2022/05/08 00:04:28;;;;;;;;;7.80;6.00;;;;;;;;5033879;28;8751;-65
2022/05/08 00:06:54;;;;;;;;;5.80;5.60;;;;;;;;5019673;28;8724;-66
2022/05/08 00:09:21;;;;;;;;;7.20;7.20;;;;;;;;5009974;28;8794;-65
2022/05/08 00:11:48;;;;;;;;;6.80;6.00;;;;;;;;4999618;28;8757;-66
2022/05/08 00:14:14;;;;;;;;;10.00;8.00;;;;;;;;4998262;28;8804;-66
2022/05/08 00:16:41;;;;;;;;;8.40;6.80;;;;;;;;4999251;28;8818;-66
2022/05/08 00:19:08;;;;;;;;;7.40;7.20;;;;;;;;4999705;28;8745;-66
2022/05/08 00:21:35;;;;;;;;;9.40;7.60;;;;;;;;4998879;28;8758;-66
2022/05/08 00:24:01;;;;;;;;;7.00;6.80;;;;;;;;5004977;28;8771;-66
2022/05/08 00:26:28;;;;;;;;;10.20;8.00;;;;;;;;5018406;28;8777;-65
2022/05/08 00:28:55;;;;;;;;;7.60;6.80;;;;;;;;5018712;28;8770;-66
2022/05/08 00:31:23;;;;;;;;;11.00;7.60;;;;;;;;5018883;28;8854;-65
2022/05/08 00:33:50;;;;;;;;;9.00;7.80;;;;;;;;5025240;28;8717;-65
2022/05/08 00:36:17;;;;;;;;;8.60;7.40;;;;;;;;5022667;28;8775;-63
2022/05/08 00:38:44;;;;;;;;;6.40;6.40;;;;;;;;5029702;28;8761;-65
2022/05/08 00:41:10;;;;;;;;;6.80;6.00;;;;;;;;4998665;28;8765;-66
2022/05/08 00:43:38;;;;;;;;;5.80;5.80;;;;;;;;4998213;28;10197;-65
2022/05/08 00:46:05;;;;;;;;;7.00;7.00;;;;;;;;4999153;28;8764;-65
2022/05/08 00:48:31;;;;;;;;;8.00;7.00;;;;;;;;4998207;28;8737;-66
2022/05/08 00:50:58;;;;;;;;;11.80;8.60;;;;;;;;4998620;28;8744;-65
2022/05/08 00:53:26;;;;;;;;;3.80;3.80;;;;;;;;4999528;28;8753;-65
2022/05/08 00:55:56;;;;;;;;;12.60;10.20;;;;;;;;5017848;28;8836;-65
2022/05/08 00:58:23;;;;;;;;;5.80;5.40;;;;;;;;5033030;28;9665;-65
2022/05/08 01:00:49;;;;;;;;;10.20;9.00;;;;;;;;5017696;28;8928;-65
2022/05/08 01:03:16;;;;;;;;;8.00;7.40;;;;;;;;5016511;28;8916;-65
2022/05/08 01:05:46;;;;;;;;;8.80;8.80;;;;;;;;5017547;28;8767;-65
2022/05/08 01:08:13;;;;;;;;;8.80;7.40;;;;;;;;5017899;28;9817;-65
2022/05/08 01:10:40;;;;;;;;;11.40;9.20;;;;;;;;4997826;28;8792;-64
2022/05/08 01:13:06;;;;;;;;;9.00;8.80;;;;;;;;4999143;28;8753;-65
2022/05/08 01:15:42;;;;;;;;;9.40;8.40;;;;;;;;4998119;28;8757;-65
2022/05/08 01:18:09;;;;;;;;;9.60;9.60;;;;;;;;5017907;28;8811;-65
2022/05/08 01:20:36;;;;;;;;;11.00;10.00;;;;;;;;5016991;28;8767;-65
2022/05/08 01:23:03;;;;;;;;;10.80;9.60;;;;;;;;5017198;28;8763;-65
2022/05/08 01:25:30;;;;;;;;;10.00;10.00;;;;;;;;5035093;28;8750;-65
2022/05/08 01:27:57;;;;;;;;;10.40;9.40;;;;;;;;5036518;28;8732;-65
2022/05/08 01:30:25;;;;;;;;;8.60;7.60;;;;;;;;5019333;28;8769;-65
2022/05/08 01:32:52;;;;;;;;;8.20;7.60;;;;;;;;5017441;28;8762;-66
2022/05/08 01:35:19;;;;;;;;;10.40;8.80;;;;;;;;5017122;28;8802;-64
2022/05/08 01:37:46;;;;;;;;;6.40;5.60;;;;;;;;5016026;28;8816;-65
2022/05/08 01:40:13;;;;;;;;;7.20;7.20;;;;;;;;5001887;28;8778;-65
2022/05/08 01:42:40;;;;;;;;;8.60;8.00;;;;;;;;4997538;28;8840;-65
2022/05/08 01:45:07;;;;;;;;;9.20;8.20;;;;;;;;4997615;28;8785;-66
2022/05/08 01:50:20;;;;;;;;;8.40;8.00;;;;;;;;4997214;28;8770;-64
2022/05/08 01:52:47;;;;;;;;;10.20;8.00;;;;;;;;4997907;28;8859;-65
2022/05/08 01:55:13;;;;;;;;;11.00;9.20;;;;;;;;5013546;28;8771;-65
2022/05/08 01:57:40;;;;;;;;;10.00;10.00;;;;;;;;5017050;28;8766;-65
2022/05/08 02:00:07;;;;;;;;;8.80;8.80;;;;;;;;5015740;28;8797;-65
2022/05/08 02:02:34;;;;;;;;;9.20;9.20;;;;;;;;5015366;28;8777;-65
2022/05/08 02:05:01;;;;;;;;;7.20;7.20;;;;;;;;5017237;28;8781;-65
2022/05/08 02:07:27;;;;;;;;;8.60;7.40;;;;;;;;5015264;28;8804;-65
2022/05/08 02:09:54;;;;;;;;;5.40;5.40;;;;;;;;5004392;28;8767;-65
2022/05/08 02:12:21;;;;;;;;;6.60;6.60;;;;;;;;4997272;28;8828;-65
2022/05/08 02:14:47;;;;;;;;;7.80;6.00;;;;;;;;4996370;28;8800;-65
2022/05/08 02:17:18;;;;;;;;;5.20;5.20;;;;;;;;4997328;28;8777;-65
2022/05/08 02:19:44;;;;;;;;;7.40;6.20;;;;;;;;5012227;28;8749;-66
2022/05/08 02:22:12;;;;;;;;;6.80;6.80;;;;;;;;4997885;28;8900;-66
2022/05/08 02:24:39;;;;;;;;;6.80;5.80;;;;;;;;5008246;28;8781;-65
2022/05/08 02:27:05;;;;;;;;;8.00;7.40;;;;;;;;5017001;28;8761;-66
2022/05/08 02:29:32;;;;;;;;;7.80;6.20;;;;;;;;5016664;28;8771;-65
2022/05/08 02:31:59;;;;;;;;;8.00;7.00;;;;;;;;5016986;28;8763;-65
2022/05/08 02:34:25;;;;;;;;;7.40;7.40;;;;;;;;5019374;28;8751;-65
2022/05/08 02:36:52;;;;;;;;;9.80;8.00;;;;;;;;5021304;28;8759;-65
2022/05/08 02:39:19;;;;;;;;;8.60;7.00;;;;;;;;5012037;28;8778;-65
2022/05/08 02:41:46;;;;;;;;;9.00;7.20;;;;;;;;5001294;28;8725;-64
2022/05/08 02:44:13;;;;;;;;;7.00;7.00;;;;;;;;5001542;28;8824;-66
2022/05/08 02:46:40;;;;;;;;;11.40;7.80;;;;;;;;5000566;28;8760;-66
2022/05/08 02:49:06;;;;;;;;;9.80;6.60;;;;;;;;5001430;28;8848;-66
2022/05/08 02:51:33;;;;;;;;;10.40;8.20;;;;;;;;5000702;28;8757;-66
2022/05/08 02:54:00;;;;;;;;;8.20;7.20;;;;;;;;5006513;28;8727;-65
2022/05/08 02:59:12;;;;;;;;;8.40;8.40;;;;;;;;5020232;28;8763;-65
2022/05/08 03:01:38;;;;;;;;;6.60;6.60;;;;;;;;5020382;28;8751;-65
2022/05/08 03:04:05;;;;;;;;;7.20;5.60;;;;;;;;5020742;28;8857;-66
2022/05/08 03:06:32;;;;;;;;;6.60;5.40;;;;;;;;5019549;28;8777;-66
2022/05/08 03:08:59;;;;;;;;;7.40;7.00;;;;;;;;5018869;28;8766;-65
2022/05/08 03:11:25;;;;;;;;;6.40;6.40;;;;;;;;5019790;28;8703;-66
2022/05/08 03:13:52;;;;;;;;;7.00;7.00;;;;;;;;5020126;28;8793;-66
2022/05/08 03:16:19;;;;;;;;;7.00;7.00;;;;;;;;5020407;28;8719;-65
2022/05/08 03:18:45;;;;;;;;;8.40;7.00;;;;;;;;5019936;28;8727;-65
2022/05/08 03:21:13;;;;;;;;;9.00;8.40;;;;;;;;5021004;28;8854;-66
2022/05/08 03:23:40;;;;;;;;;8.80;7.80;;;;;;;;5028784;28;8763;-66
2022/05/08 03:26:07;;;;;;;;;7.00;7.00;;;;;;;;5014637;28;8788;-65
2022/05/08 03:28:34;;;;;;;;;9.20;7.60;;;;;;;;5012276;28;8790;-66
2022/05/08 03:31:01;;;;;;;;;9.60;7.00;;;;;;;;5020510;28;8886;-65
2022/05/08 03:33:28;;;;;;;;;4.60;4.60;;;;;;;;5019219;28;8808;-65
2022/05/08 03:35:55;;;;;;;;;6.00;6.00;;;;;;;;5019316;28;8965;-64
2022/05/08 03:38:22;;;;;;;;;7.20;6.00;;;;;;;;5018790;28;8776;-65
2022/05/08 03:40:49;;;;;;;;;7.00;5.00;;;;;;;;4999814;28;8781;-66
2022/05/08 03:43:15;;;;;;;;;5.00;5.00;;;;;;;;5000297;28;8812;-65
2022/05/08 03:45:43;;;;;;;;;5.20;4.80;;;;;;;;4999380;28;8773;-65
2022/05/08 03:48:10;;;;;;;;;6.80;6.20;;;;;;;;4999620;28;8784;-65
2022/05/08 03:50:37;;;;;;;;;6.80;6.80;;;;;;;;4999595;28;8799;-65
2022/05/08 03:53:04;;;;;;;;;6.00;6.00;;;;;;;;4994747;28;8865;-65
2022/05/08 03:55:30;;;;;;;;;7.20;7.20;;;;;;;;5027434;28;8798;-65
2022/05/08 03:57:57;;;;;;;;;7.00;6.40;;;;;;;;5018280;28;8742;-65
2022/05/08 04:00:24;;;;;;;;;7.60;7.60;;;;;;;;5019485;28;9091;-65
2022/05/08 04:02:50;;;;;;;;;7.60;6.60;;;;;;;;5019411;28;8767;-66
2022/05/08 04:05:17;;;;;;;;;7.00;7.00;;;;;;;;5019217;28;8787;-65
2022/05/08 04:07:44;;;;;;;;;6.60;6.00;;;;;;;;5019098;28;8747;-65
2022/05/08 04:10:11;;;;;;;;;3.20;3.20;;;;;;;;5019314;28;8738;-65
2022/05/08 04:12:37;;;;;;;;;6.80;5.20;;;;;;;;4999085;28;8979;-66
2022/05/08 04:15:04;;;;;;;;;5.40;5.20;;;;;;;;4997969;28;8753;-66
2022/05/08 04:17:32;;;;;;;;;2.20;2.20;;;;;;;;4997745;28;8800;-66
2022/05/08 04:19:59;;;;;;;;;4.40;4.40;;;;;;;;4997847;28;8800;-65
2022/05/08 04:25:11;;;;;;;;;8.20;7.20;;;;;;;;5014702;28;8712;-66
2022/05/08 04:27:38;;;;;;;;;4.80;4.80;;;;;;;;5018458;28;8763;-65
2022/05/08 04:30:05;;;;;;;;;5.00;5.00;;;;;;;;5018552;28;8755;-66
2022/05/08 04:32:31;;;;;;;;;5.60;5.60;;;;;;;;5018239;28;8787;-65
2022/05/08 04:34:58;;;;;;;;;6.00;6.00;;;;;;;;5018263;28;8781;-65
2022/05/08 04:37:25;;;;;;;;;5.20;5.20;;;;;;;;5018029;28;8743;-63
2022/05/08 04:39:52;;;;;;;;;6.20;6.20;;;;;;;;5006581;28;8791;-65
2022/05/08 04:42:18;;;;;;;;;6.20;6.20;;;;;;;;5002391;28;8753;-64
2022/05/08 04:44:45;;;;;;;;;7.80;6.40;;;;;;;;4998555;28;8756;-66
2022/05/08 04:47:12;;;;;;;;;8.80;7.40;;;;;;;;4998758;28;8785;-66
2022/05/08 04:49:38;;;;;;;;;7.20;6.00;;;;;;;;4998235;28;8754;-66
2022/05/08 04:52:05;;;;;;;;;7.80;7.80;;;;;;;;5014095;28;9493;-66
2022/05/08 04:54:32;;;;;;;;;6.00;5.80;;;;;;;;5016085;28;8861;-66
2022/05/08 04:57:00;;;;;;;;;6.60;6.60;;;;;;;;5019334;28;8823;-66
2022/05/08 04:59:27;;;;;;;;;7.40;7.40;;;;;;;;5028946;28;8759;-65
2022/05/08 05:01:55;;;;;;;;;7.20;7.20;;;;;;;;5057864;28;8766;-66
2022/05/08 05:04:22;;;;;;;;;8.80;8.80;;;;;;;;5040336;28;8729;-65
2022/05/08 05:06:49;;;;;;;;;6.40;6.40;;;;;;;;5057539;28;8747;-66
2022/05/08 05:09:15;;;;;;;;;9.00;8.60;;;;;;;;5043763;28;8861;-66
2022/05/08 05:11:42;;;;;;;;;6.40;6.40;;;;;;;;5017873;28;8825;-65
2022/05/08 05:14:09;;;;;;;;;7.40;7.00;;;;;;;;5016883;28;8755;-66
2022/05/08 05:16:35;;;;;;;;;5.60;5.00;;;;;;;;5017625;28;8751;-65
2022/05/08 05:19:04;;;;;;;;;6.80;6.80;;;;;;;;5018270;28;8739;-66
2022/05/08 05:21:31;;;;;;;;;8.20;8.20;;;;;;;;5017539;28;8731;-66
2022/05/08 05:23:58;;;;;;;;;6.20;5.00;;;;;;;;5012325;28;8718;-66
2022/05/08 05:26:25;;;;;;;;;6.00;6.00;;;;;;;;5013099;28;8773;-66
2022/05/08 05:28:51;;;;;;;;;7.00;7.00;;;;;;;;4998145;28;8905;-66
2022/05/08 05:31:18;;;;;;;;;8.80;7.00;;;;;;;;4998251;28;8773;-65
2022/05/08 05:33:46;;;;;;;;;4.80;4.80;;;;;;;;4996760;28;8943;-66
2022/05/08 05:36:13;;;;;;;;;5.00;4.00;;;;;;;;4997535;28;9458;-66
2022/05/08 05:38:40;;;;;;;;;6.40;6.40;;;;;;;;5000402;28;8799;-65
2022/05/08 05:41:07;;;;;;;;;6.20;6.20;;;;;;;;5017164;28;8777;-65
2022/05/08 05:43:34;;;;;;;;;5.80;5.80;;;;;;;;5017260;28;8791;-66
2022/05/08 05:48:46;;;;;;;;;6.00;6.00;;;;;;;;5017922;28;8767;-66
2022/05/08 05:51:12;;;;;;;;;6.60;6.00;;;;;;;;5017019;28;8787;-66
2022/05/08 05:53:39;;;;;;;;;6.40;6.40;;;;;;;;5014232;28;8813;-66
2022/05/08 05:56:06;;;;;;;;;7.00;7.00;;;;;;;;4997495;28;8769;-66
2022/05/08 05:58:32;;;;;;;;;8.20;6.80;;;;;;;;4996848;28;8824;-65
2022/05/08 06:00:59;;;;;;;;;6.00;5.40;;;;;;;;4998045;28;8741;-66
2022/05/08 06:03:26;;;;;;;;;5.40;4.60;;;;;;;;4988749;28;8893;-65
2022/05/08 06:05:53;;;;;;;;;7.80;5.80;;;;;;;;4979907;28;8789;-65
2022/05/08 06:08:19;;;;;;;;;7.60;5.00;;;;;;;;4997033;28;8777;-64
2022/05/08 06:10:46;;;;;;;;;5.20;5.20;;;;;;;;5016803;28;8762;-65
2022/05/08 06:13:13;;;;;;;;;5.00;5.00;;;;;;;;5016117;28;8759;-65
2022/05/08 06:15:39;;;;;;;;;8.00;5.40;;;;;;;;5017039;28;8747;-65
2022/05/08 06:18:06;;;;;;;;;8.00;6.20;;;;;;;;5016687;28;9462;-66
2022/05/08 06:20:33;;;;;;;;;10.20;9.20;;;;;;;;5015338;28;8771;-66
2022/05/08 06:23:00;;;;;;;;;7.80;7.00;;;;;;;;5016574;28;8857;-66
2022/05/08 06:25:27;;;;;;;;;8.00;8.00;;;;;;;;4997755;28;8753;-65
2022/05/08 06:27:54;;;;;;;;;6.80;6.80;;;;;;;;4980415;28;8799;-66
2022/05/08 06:30:20;;;;;;;;;7.00;7.00;;;;;;;;4997084;28;8748;-65
2022/05/08 06:32:47;;;;;;;;;5.20;5.20;;;;;;;;4997337;28;8753;-66
2022/05/08 06:35:14;;;;;;;;;9.60;7.20;;;;;;;;4995556;28;8876;-66
2022/05/08 06:37:40;;;;;;;;;7.20;7.20;;;;;;;;4997033;28;8742;-66
2022/05/08 06:40:07;;;;;;;;;9.20;6.80;;;;;;;;5012059;28;8735;-66
2022/05/08 06:42:34;;;;;;;;;8.00;6.80;;;;;;;;5016199;28;8832;-66
2022/05/08 06:45:02;;;;;;;;;7.00;7.00;;;;;;;;5015349;28;8803;-66
2022/05/08 06:47:29;;;;;;;;;6.00;6.00;;;;;;;;5016572;28;8765;-65
2022/05/08 06:49:56;;;;;;;;;6.80;6.00;;;;;;;;5016826;28;8759;-66
2022/05/08 06:52:25;;;;;;;;;10.80;8.20;;;;;;;;5017148;28;8761;-65
2022/05/08 06:54:51;;;;;;;;;6.00;6.00;;;;;;;;5004298;28;8754;-66
2022/05/08 06:57:18;;;;;;;;;7.40;7.00;;;;;;;;4996686;28;8718;-65
2022/05/08 07:02:30;;;;;;;;;7.00;7.00;;;;;;;;4996589;28;8781;-66
2022/05/08 07:04:56;;;;;;;;;8.20;7.00;;;;;;;;4997362;28;8758;-66
2022/05/08 07:07:23;;;;;;;;;5.40;5.40;;;;;;;;5012406;28;8738;-66
2022/05/08 07:09:51;;;;;;;;;7.20;7.20;;;;;;;;5016936;28;9394;-66
2022/05/08 07:12:18;;;;;;;;;7.80;6.00;;;;;;;;5020389;28;8800;-64
2022/05/08 07:14:46;;;;;;;;;8.40;8.00;;;;;;;;5014948;28;8735;-66
2022/05/08 07:17:13;;;;;;;;;6.40;6.40;;;;;;;;5016155;28;8763;-66
2022/05/08 07:19:39;;;;;;;;;9.60;8.00;;;;;;;;5017316;28;8759;-66
2022/05/08 07:22:06;;;;;;;;;7.00;7.00;;;;;;;;5020404;28;8806;-66
2022/05/08 07:24:33;;;;;;;;;7.60;7.60;;;;;;;;5009428;28;8784;-66
2022/05/08 07:27:00;;;;;;;;;7.40;7.00;;;;;;;;4999997;28;8745;-66
2022/05/08 07:29:26;;;;;;;;;7.20;7.20;;;;;;;;4999653;28;8701;-66
2022/05/08 07:31:53;;;;;;;;;7.60;7.60;;;;;;;;5000122;28;8749;-66
2022/05/08 07:37:05;;;;;;;;;6.40;6.40;;;;;;;;5020157;28;8780;-66
2022/05/08 07:39:32;;;;;;;;;8.20;8.20;;;;;;;;5027578;28;8734;-65
2022/05/08 07:41:59;;;;;;;;;7.00;7.00;;;;;;;;5039118;28;8734;-66
2022/05/08 07:44:26;;;;;;;;;9.20;7.00;;;;;;;;5038747;28;8831;-65
2022/05/08 07:46:52;;;;;;;;;7.00;7.00;;;;;;;;5039416;28;8824;-66
2022/05/08 07:49:19;;;;;;;;;5.80;5.80;;;;;;;;5039232;28;8773;-65
2022/05/08 07:51:46;;;;;;;;;9.00;9.00;;;;;;;;5039031;28;8774;-66
2022/05/08 07:54:12;;;;;;;;;6.20;6.20;;;;;;;;5038778;28;8875;-65
2022/05/08 07:56:39;;;;;;;;;7.00;7.00;;;;;;;;5021091;28;8824;-65
2022/05/08 07:59:06;;;;;;;;;8.00;8.00;;;;;;;;5038689;28;8855;-65
2022/05/08 08:01:32;;;;;;;;;4.40;4.40;;;;;;;;5038711;28;8770;-65
2022/05/08 08:03:59;;;;;;;;;8.60;8.00;;;;;;;;5038937;28;8754;-66
2022/05/08 08:06:26;;;;;;;;;8.00;8.00;;;;;;;;5058854;28;8767;-66
2022/05/08 08:08:55;;;;;;;;;7.00;7.00;;;;;;;;5053928;28;8835;-66
2022/05/08 08:11:22;;;;;;;;;8.00;7.00;;;;;;;;5019123;28;8842;-65
2022/05/08 08:13:49;;;;;;;;;6.60;6.00;;;;;;;;5018768;28;8861;-66
2022/05/08 08:16:16;;;;;;;;;11.80;9.00;;;;;;;;5019342;28;9513;-66
2022/05/08 08:18:45;;;;;;;;;11.20;9.60;;;;;;;;5018765;28;8786;-66
2022/05/08 08:21:12;;;;;;;;;12.80;10.40;;;;;;;;5017422;28;8801;-65
2022/05/08 08:23:40;;;;;;;;;12.60;9.00;;;;;;;;5015806;28;8868;-66
2022/05/08 08:26:06;;;;;;;;;7.20;6.20;;;;;;;;4999146;28;8831;-65
2022/05/08 08:28:33;;;;;;;;;8.40;5.40;;;;;;;;4997564;28;8781;-65
2022/05/08 08:31:00;;;;;;;;;10.40;10.00;;;;;;;;4998348;28;8733;-66
2022/05/08 08:33:27;;;;;;;;;11.60;8.60;;;;;;;;5013628;28;8774;-65
2022/05/08 08:35:54;;;;;;;;;7.60;7.60;;;;;;;;4998863;28;8805;-66
2022/05/08 08:38:20;;;;;;;;;10.80;9.80;;;;;;;;4998468;28;8762;-65
2022/05/08 08:40:49;;;;;;;;;9.40;8.60;;;;;;;;5018597;28;9470;-66
2022/05/08 08:43:19;;;;;;;;;9.80;8.60;;;;;;;;5017483;28;8852;-66
2022/05/08 08:48:30;;;;;;;;;12.20;8.20;;;;;;;;5017004;28;8774;-65
2022/05/08 08:50:58;;;;;;;;;7.00;7.00;;;;;;;;5018426;28;8849;-66
2022/05/08 08:53:25;;;;;;;;;10.40;7.40;;;;;;;;5017196;28;9225;-65
2022/05/08 08:55:51;;;;;;;;;7.80;7.80;;;;;;;;4998581;28;8778;-66
2022/05/08 08:58:18;;;;;;;;;6.00;5.80;;;;;;;;4998360;28;8891;-65
2022/05/08 09:00:49;;;;;;;;;7.00;7.00;;;;;;;;5013254;28;9422;-66
2022/05/08 09:03:20;;;;;;;;;10.20;8.20;;;;;;;;4998236;28;8765;-66
2022/05/08 09:05:47;;;;;;;;;7.40;5.60;;;;;;;;4997388;28;8785;-66
2022/05/08 09:08:26;;;;;;;;;6.60;6.20;;;;;;;;5013421;28;8761;-66
2022/05/08 09:10:54;;;;;;;;;10.00;8.00;;;;;;;;4998142;28;9410;-65
2022/05/08 09:13:23;;;;;;;;;3.00;3.00;;;;;;;;4998324;28;8761;-65
2022/05/08 09:15:50;;;;;;;;;4.40;2.60;;;;;;;;4998044;28;8851;-66
2022/05/08 09:18:16;;;;;;;;;1.20;1.20;;;;;;;;4998111;28;8812;-66
2022/05/08 09:20:48;;;;;;;;;3.00;1.20;;;;;;;;4998109;28;8791;-66
2022/05/08 09:23:18;;;;;;;;;0.20;0.20;;;;;;;;4997894;28;8785;-66
2022/05/08 09:25:48;;;;;;;;;0.20;0.20;;;;;;;;4998146;28;8817;-66
2022/05/08 09:28:15;;;;;;;;;2.20;2.20;;;;;;;;5013532;28;8772;-66
2022/05/08 09:30:55;;;;;;;;;1.40;1.00;;;;;;;;5013170;28;8823;-66
2022/05/08 09:33:25;;;;;;;;;1.00;1.00;;;;;;;;4996458;28;8788;-66
2022/05/08 09:35:52;;;;;;;;;1.60;1.40;;;;;;;;4997720;28;8836;-66
2022/05/08 09:38:18;;;;;;;;;4.00;1.60;;;;;;;;4997505;28;8773;-65
2022/05/08 09:40:45;;;;;;;;;1.20;1.20;;;;;;;;5000105;28;8829;-66
2022/05/08 09:43:30;;;;;;;;;1.00;1.00;;;;;;;;5017444;28;9439;-66
2022/05/08 09:45:57;;;;;;;;;3.00;1.40;;;;;;;;5017656;28;8763;-66
2022/05/08 09:48:26;;;;;;;;;1.00;0.20;;;;;;;;5017211;28;8732;-66
2022/05/08 09:51:03;;;;;;;;;0.00;0.00;;;;;;;;5016815;28;8891;-65
2022/05/08 09:53:30;;;;;;;;;0.40;0.40;;;;;;;;5018361;28;8743;-66
2022/05/08 09:56:00;;;;;;;;;1.00;0.20;;;;;;;;5036761;28;8774;-66
2022/05/08 09:58:27;;;;;;;;;1.20;1.00;;;;;;;;5036366;28;8762;-65
2022/05/08 10:00:57;;;;;;;;;1.20;1.20;;;;;;;;5005735;28;8752;-66
2022/05/08 10:03:24;;;;;;;;;0.20;0.20;;;;;;;;5017195;28;8747;-65
2022/05/08 10:05:51;;;;;;;;;0.00;0.00;;;;;;;;5016234;28;8798;-66
2022/05/08 10:08:18;;;;;;;;;1.20;1.00;;;;;;;;5016856;28;8810;-65
2022/05/08 10:16:40;;;;;;;;;1.60;0.40;;;;;;;;5017259;28;8727;-65
2022/05/08 10:19:19;;;;;;;;;1.00;1.00;;;;;;;;5037329;28;8781;-66
2022/05/08 10:22:05;;;;;;;;;0.60;0.60;;;;;;;;5036709;28;8796;-66
2022/05/08 10:24:36;;;;;;;;;1.00;1.00;;;;;;;;5036305;28;8801;-66
2022/05/08 10:27:14;;;;;;;;;1.00;1.00;;;;;;;;5018772;28;8778;-66
2022/05/08 10:30:03;;;;;;;;;1.00;1.00;;;;;;;;5036954;28;8771;-66
2022/05/08 10:32:33;;;;;;;;;1.80;1.80;;;;;;;;5036217;28;9508;-65
2022/05/08 10:35:12;;;;;;;;;2.80;1.80;;;;;;;;5036269;28;8753;-65
2022/05/08 10:37:39;;;;;;;;;3.60;2.00;;;;;;;;5036635;28;8768;-66
2022/05/08 10:40:26;;;;;;;;;3.60;3.00;;;;;;;;5036548;28;8793;-66
2022/05/08 10:43:01;;;;;;;;;6.40;4.20;;;;;;;;5036100;28;8883;-65
2022/05/08 10:45:36;;;;;;;;;8.80;7.20;;;;;;;;5036525;28;8768;-65
2022/05/08 10:48:05;;;;;;;;;4.20;4.20;;;;;;;;5036624;28;8744;-66
2022/05/08 10:50:31;;;;;;;;;1.00;1.00;;;;;;;;5035942;28;8768;-65
2022/05/08 10:52:58;;;;;;;;;4.00;4.00;;;;;;;;5036331;28;8761;-66
2022/05/08 10:55:25;;;;;;;;;5.20;4.20;;;;;;;;5038472;28;8924;-65
2022/05/08 10:57:52;;;;;;;;;7.00;7.00;;;;;;;;5060043;28;8775;-66
2022/05/08 11:00:20;;;;;;;;;8.00;6.00;;;;;;;;5059358;28;8866;-65
2022/05/08 11:02:51;;;;;;;;;6.40;6.40;;;;;;;;5060101;28;8763;-66
2022/05/08 11:05:18;;;;;;;;;13.00;10.40;;;;;;;;5059811;28;8884;-65
2022/05/08 11:08:04;;;;;;;;;24.80;14.80;;;;;;;;5059749;28;8861;-65
2022/05/08 11:10:31;;;;;;;;;14.40;13.00;;;;;;;;5040473;28;8786;-65
2022/05/08 11:13:02;;;;;;;;;17.40;14.20;;;;;;;;5020622;28;8767;-65
2022/05/08 11:15:29;;;;;;;;;22.60;15.80;;;;;;;;5019981;28;8775;-66
2022/05/08 11:18:02;;;;;;;;;14.40;14.00;;;;;;;;5019711;28;8837;-65
2022/05/08 11:20:29;;;;;;;;;12.20;8.80;;;;;;;;5017934;28;8764;-66
2022/05/08 11:22:56;;;;;;;;;10.60;9.80;;;;;;;;5026754;28;8755;-65
2022/05/08 11:25:23;;;;;;;;;9.40;9.00;;;;;;;;5003102;28;8879;-66
2022/05/08 11:27:53;;;;;;;;;9.60;8.00;;;;;;;;5000369;28;8745;-65
2022/05/08 11:30:50;;;;;;;;;7.60;7.00;;;;;;;;4999941;28;8795;-65
2022/05/08 11:36:07;;;;;;;;;5.60;5.00;;;;;;;;5020135;28;8807;-66
2022/05/08 11:38:41;;;;;;;;;8.80;8.80;;;;;;;;5011788;28;8805;-66
2022/05/08 11:41:15;;;;;;;;;7.00;7.00;;;;;;;;5059651;28;8739;-66
2022/05/08 11:43:42;;;;;;;;;10.60;8.60;;;;;;;;5059067;28;9537;-66
2022/05/08 11:46:09;;;;;;;;;7.80;6.60;;;;;;;;5059696;28;8781;-66
2022/05/08 11:48:40;;;;;;;;;10.80;9.00;;;;;;;;5041458;28;8797;-66
2022/05/08 11:51:07;;;;;;;;;8.20;7.20;;;;;;;;5059259;28;8839;-66
2022/05/08 11:53:47;;;;;;;;;8.40;6.20;;;;;;;;5038937;28;8762;-66
2022/05/08 11:56:38;;;;;;;;;9.20;8.20;;;;;;;;5039439;28;8765;-67
2022/05/08 11:59:05;;;;;;;;;9.60;7.80;;;;;;;;5019724;28;8763;-67
2022/05/08 12:01:32;;;;;;;;;9.60;7.60;;;;;;;;5037373;28;8803;-66
2022/05/08 12:04:08;;;;;;;;;14.40;9.00;;;;;;;;5019524;28;8841;-67
2022/05/08 12:06:35;;;;;;;;;9.40;8.00;;;;;;;;5033776;28;8787;-67
2022/05/08 12:09:07;;;;;;;;;12.00;9.00;;;;;;;;5013551;28;8875;-66
2022/05/08 12:11:35;;;;;;;;;8.60;5.80;;;;;;;;4999218;28;8769;-66
2022/05/08 12:14:02;;;;;;;;;8.00;7.00;;;;;;;;4981905;28;8859;-66
2022/05/08 12:16:31;;;;;;;;;8.60;6.40;;;;;;;;4998942;28;9406;-66
2022/05/08 12:19:11;;;;;;;;;8.80;8.00;;;;;;;;4982543;28;8793;-66
2022/05/08 12:21:38;;;;;;;;;10.20;8.80;;;;;;;;5018842;28;8752;-66
2022/05/08 12:24:09;;;;;;;;;12.00;10.20;;;;;;;;5024583;28;8880;-66
2022/05/08 12:26:36;;;;;;;;;8.60;8.00;;;;;;;;5038090;28;8773;-66
2022/05/08 12:29:02;;;;;;;;;5.40;4.60;;;;;;;;5038385;28;8880;-67
2022/05/08 12:31:29;;;;;;;;;9.20;7.60;;;;;;;;5036399;28;8733;-66
2022/05/08 12:33:56;;;;;;;;;11.40;10.00;;;;;;;;5019111;28;8829;-67
2022/05/08 12:36:23;;;;;;;;;8.60;6.40;;;;;;;;5018070;28;9799;-67
2022/05/08 12:38:49;;;;;;;;;7.20;5.80;;;;;;;;5029586;28;8794;-66
2022/05/08 12:41:16;;;;;;;;;9.20;7.40;;;;;;;;4998856;28;8860;-66
2022/05/08 12:43:43;;;;;;;;;9.80;8.40;;;;;;;;4998288;28;8809;-66
2022/05/08 12:46:10;;;;;;;;;8.00;6.80;;;;;;;;4999196;28;8742;-67
2022/05/08 12:48:37;;;;;;;;;6.40;6.20;;;;;;;;4980931;28;8781;-67
2022/05/08 12:51:04;;;;;;;;;7.80;7.20;;;;;;;;4981472;28;8769;-67
2022/05/08 12:53:30;;;;;;;;;7.40;7.00;;;;;;;;4999662;28;8761;-67
2022/05/08 12:55:57;;;;;;;;;8.80;7.20;;;;;;;;5018529;28;8774;-67
2022/05/08 13:01:08;;;;;;;;;7.80;7.20;;;;;;;;5038635;28;8760;-67
2022/05/08 13:03:36;;;;;;;;;9.20;7.00;;;;;;;;5019560;28;8750;-66
2022/05/08 13:06:03;;;;;;;;;5.80;5.40;;;;;;;;5018119;28;8763;-67
2022/05/08 13:08:30;;;;;;;;;8.00;5.80;;;;;;;;5031591;28;8767;-66
2022/05/08 13:10:57;;;;;;;;;7.80;7.80;;;;;;;;4997949;28;8768;-67
2022/05/08 13:13:23;;;;;;;;;8.00;7.00;;;;;;;;4998174;28;8734;-66
2022/05/08 13:15:50;;;;;;;;;5.40;5.40;;;;;;;;4981559;28;8849;-67
2022/05/08 13:18:17;;;;;;;;;7.20;6.00;;;;;;;;4997168;28;8765;-66
2022/05/08 13:20:43;;;;;;;;;5.80;5.80;;;;;;;;4998199;28;8785;-67
2022/05/08 13:23:11;;;;;;;;;5.20;4.80;;;;;;;;4998088;28;8778;-67
2022/05/08 13:25:38;;;;;;;;;5.00;5.00;;;;;;;;5015893;28;8771;-66
2022/05/08 13:28:05;;;;;;;;;5.80;5.80;;;;;;;;5017901;28;8817;-67
2022/05/08 13:30:31;;;;;;;;;5.40;5.00;;;;;;;;5017321;28;8782;-66
2022/05/08 13:32:58;;;;;;;;;5.40;5.40;;;;;;;;5017339;28;8779;-66
2022/05/08 13:35:26;;;;;;;;;6.60;5.80;;;;;;;;5017185;28;9609;-66
2022/05/08 13:37:55;;;;;;;;;5.60;5.60;;;;;;;;5017440;28;8771;-66
2022/05/08 13:40:22;;;;;;;;;7.80;6.00;;;;;;;;5015948;28;8764;-65
2022/05/08 13:42:48;;;;;;;;;4.00;4.00;;;;;;;;4997414;28;8745;-66
2022/05/08 13:45:15;;;;;;;;;6.00;4.00;;;;;;;;4995618;28;8838;-66
2022/05/08 13:47:42;;;;;;;;;7.20;5.60;;;;;;;;4997713;28;8746;-66
2022/05/08 13:50:09;;;;;;;;;5.60;5.60;;;;;;;;4997541;28;8925;-66
2022/05/08 13:52:36;;;;;;;;;5.40;5.20;;;;;;;;4997351;28;8768;-66
2022/05/08 13:55:02;;;;;;;;;6.20;5.20;;;;;;;;5011535;28;9356;-66
2022/05/08 13:57:31;;;;;;;;;4.20;4.20;;;;;;;;5016952;28;8750;-66
2022/05/08 13:59:58;;;;;;;;;5.00;4.20;;;;;;;;5017035;28;8755;-66
2022/05/08 14:02:25;;;;;;;;;5.60;5.60;;;;;;;;5016964;28;8739;-66
2022/05/08 14:04:52;;;;;;;;;4.80;4.00;;;;;;;;5017251;28;8787;-66
2022/05/08 14:07:19;;;;;;;;;4.20;4.00;;;;;;;;5015973;28;8746;-66
2022/05/08 14:09:46;;;;;;;;;4.00;4.00;;;;;;;;5004402;28;8733;-66
2022/05/08 14:12:15;;;;;;;;;5.80;4.20;;;;;;;;4997161;28;8789;-66
2022/05/08 14:14:42;;;;;;;;;6.60;3.00;;;;;;;;4997049;28;8808;-66
2022/05/08 14:17:09;;;;;;;;;6.80;4.00;;;;;;;;4980361;28;8773;-66
2022/05/08 14:19:35;;;;;;;;;2.20;2.20;;;;;;;;4979454;28;9502;-66
2022/05/08 14:22:02;;;;;;;;;4.80;4.00;;;;;;;;4997640;28;8762;-66
2022/05/08 14:24:29;;;;;;;;;6.20;4.20;;;;;;;;4988863;28;8771;-66
2022/05/08 14:26:56;;;;;;;;;3.00;3.00;;;;;;;;5016989;28;8783;-65
2022/05/08 14:29:22;;;;;;;;;5.20;4.60;;;;;;;;5019601;28;8849;-66
2022/05/08 14:37:19;;;;;;;;;5.40;5.00;;;;;;;;5034394;28;8775;-64
2022/05/08 14:39:46;;;;;;;;;6.20;5.60;;;;;;;;5009213;28;8827;-66
2022/05/08 14:42:13;;;;;;;;;6.00;4.80;;;;;;;;5001106;28;8781;-66
2022/05/08 14:44:40;;;;;;;;;4.00;4.00;;;;;;;;4980569;28;8796;-66
2022/05/08 14:47:06;;;;;;;;;3.00;2.60;;;;;;;;4982359;28;8772;-66
2022/05/08 14:49:36;;;;;;;;;10.20;5.80;;;;;;;;4980967;28;8768;-65
2022/05/08 14:52:02;;;;;;;;;6.00;4.00;;;;;;;;4997119;28;8736;-66
2022/05/08 14:54:32;;;;;;;;;4.20;4.20;;;;;;;;4989987;28;8781;-66
2022/05/08 14:56:59;;;;;;;;;4.00;4.00;;;;;;;;5000816;28;8777;-66
2022/05/08 14:59:26;;;;;;;;;5.00;3.00;;;;;;;;5000659;28;8797;-66
2022/05/08 15:01:52;;;;;;;;;5.20;5.20;;;;;;;;5000744;28;8785;-66
2022/05/08 15:04:19;;;;;;;;;4.60;3.20;;;;;;;;5000810;28;8768;-65
2022/05/08 15:06:46;;;;;;;;;4.20;4.20;;;;;;;;5031579;28;8733;-66
2022/05/08 15:09:13;;;;;;;;;5.20;4.00;;;;;;;;4993808;28;8792;-66
2022/05/08 15:11:40;;;;;;;;;4.40;3.60;;;;;;;;4981076;28;8784;-66
2022/05/08 15:14:07;;;;;;;;;5.00;4.80;;;;;;;;4981116;28;8764;-66
2022/05/08 15:16:33;;;;;;;;;4.00;4.00;;;;;;;;4980824;28;8760;-65
2022/05/08 15:19:02;;;;;;;;;6.00;3.40;;;;;;;;4996436;28;8796;-66
2022/05/08 15:21:29;;;;;;;;;5.40;4.40;;;;;;;;4995657;28;9500;-65
2022/05/08 15:23:57;;;;;;;;;7.20;6.00;;;;;;;;4985292;28;8774;-66
2022/05/08 15:26:23;;;;;;;;;10.80;7.00;;;;;;;;5031353;28;8840;-65
2022/05/08 15:28:50;;;;;;;;;7.40;6.80;;;;;;;;5000387;28;8769;-66
2022/05/08 15:31:18;;;;;;;;;7.00;7.00;;;;;;;;5000715;28;8797;-66
2022/05/08 15:33:44;;;;;;;;;6.20;6.20;;;;;;;;5000135;28;8839;-66
2022/05/08 15:36:11;;;;;;;;;7.00;5.20;;;;;;;;5030882;28;8828;-66